createdAt,value
2018-10-19T00:00:53.001Z,0.00
2018-10-19T00:01:52.968Z,0.00
2018-10-19T00:02:52.989Z,0.00
2018-10-19T00:03:52.903Z,0.00
2018-10-19T00:04:52.900Z,0.00
2018-10-19T00:05:52.835Z,0.00
2018-10-19T00:06:52.806Z,0.00
2018-10-19T00:07:52.781Z,0.00
2018-10-19T00:08:52.744Z,0.00
2018-10-19T00:09:52.707Z,0.00
2018-10-19T00:10:52.679Z,0.00
2018-10-19T00:11:52.643Z,0.00
2018-10-19T00:12:53.327Z,0.00
2018-10-19T00:13:52.579Z,0.00
2018-10-19T00:14:52.548Z,0.00
2018-10-19T00:15:52.513Z,0.00
2018-10-19T00:16:52.497Z,0.00
2018-10-19T00:17:52.449Z,0.00
2018-10-19T00:18:52.416Z,0.00
2018-10-19T00:19:52.381Z,0.00
2018-10-19T00:20:52.364Z,0.00
2018-10-19T00:21:52.320Z,0.00
2018-10-19T00:22:52.288Z,0.00
2018-10-19T00:23:52.254Z,0.00
2018-10-19T00:24:52.220Z,0.00
2018-10-19T00:25:52.188Z,0.00
2018-10-19T00:26:52.157Z,0.00
2018-10-19T00:27:52.120Z,0.00
2018-10-19T00:28:52.091Z,0.00
2018-10-19T00:29:52.058Z,0.00
2018-10-19T00:30:52.027Z,0.00
2018-10-19T00:31:51.992Z,0.00
2018-10-19T00:32:51.961Z,0.00
2018-10-19T00:33:51.980Z,0.00
2018-10-19T00:34:52.789Z,0.00
2018-10-19T00:35:51.862Z,0.00
2018-10-19T00:36:51.871Z,0.00
2018-10-19T00:37:51.797Z,0.00
2018-10-19T00:38:51.766Z,0.00
2018-10-19T00:39:51.730Z,0.00
2018-10-19T00:40:51.699Z,0.00
2018-10-19T00:41:51.667Z,0.00
2018-10-19T00:42:51.634Z,0.00
2018-10-19T00:43:51.599Z,0.00
2018-10-19T00:44:51.569Z,0.00
2018-10-19T00:45:51.535Z,0.00
2018-10-19T00:46:51.506Z,0.00
2018-10-19T00:47:51.478Z,0.00
2018-10-19T00:48:51.438Z,0.00
2018-10-19T00:49:51.405Z,0.00
2018-10-19T00:50:51.374Z,0.00
2018-10-19T00:51:51.339Z,0.00
2018-10-19T00:52:52.299Z,0.00
2018-10-19T00:53:51.275Z,0.00
2018-10-19T00:54:51.243Z,0.00
2018-10-19T00:55:51.209Z,0.00
2018-10-19T00:56:51.178Z,0.00
2018-10-19T00:57:51.144Z,0.00
2018-10-19T00:58:51.112Z,0.00
2018-10-19T00:59:51.085Z,0.00
2018-10-19T01:00:51.047Z,0.00
2018-10-19T01:01:51.013Z,0.00
2018-10-19T01:02:50.981Z,0.00
2018-10-19T01:03:50.948Z,0.00
2018-10-19T01:04:50.916Z,0.00
2018-10-19T01:05:50.889Z,0.00
2018-10-19T01:06:50.851Z,0.00
2018-10-19T01:07:50.818Z,0.00
2018-10-19T01:08:50.831Z,0.00
2018-10-19T01:09:50.754Z,0.00
2018-10-19T01:10:50.725Z,0.00
2018-10-19T01:11:50.687Z,0.00
2018-10-19T01:12:50.658Z,0.00
2018-10-19T01:13:50.626Z,0.00
2018-10-19T01:14:50.591Z,0.00
2018-10-19T01:15:50.555Z,0.00
2018-10-19T01:16:50.523Z,0.00
2018-10-19T01:17:50.495Z,0.00
2018-10-19T01:18:50.464Z,0.00
2018-10-19T01:19:50.424Z,0.00
2018-10-19T01:20:50.391Z,0.00
2018-10-19T01:21:50.359Z,0.00
2018-10-19T01:22:50.326Z,0.00
2018-10-19T01:23:50.290Z,0.00
2018-10-19T01:24:50.267Z,0.00
2018-10-19T01:25:50.228Z,0.00
2018-10-19T01:26:50.194Z,0.00
2018-10-19T01:27:50.158Z,0.00
2018-10-19T01:28:50.131Z,0.00
2018-10-19T01:29:50.097Z,0.00
2018-10-19T01:30:50.066Z,0.00
2018-10-19T01:31:50.029Z,0.00
2018-10-19T01:32:49.999Z,0.00
2018-10-19T01:33:49.968Z,0.00
2018-10-19T01:34:49.933Z,0.00
2018-10-19T01:35:49.900Z,0.00
2018-10-19T01:36:49.866Z,0.00
2018-10-19T01:37:49.834Z,0.00
2018-10-19T01:38:49.807Z,0.00
2018-10-19T01:39:49.769Z,0.00
2018-10-19T01:40:49.741Z,0.00
2018-10-19T01:41:49.703Z,0.00
2018-10-19T01:42:49.671Z,0.00
2018-10-19T01:43:49.636Z,0.00
2018-10-19T01:44:49.604Z,0.00
2018-10-19T01:45:49.571Z,0.00
2018-10-19T01:46:49.537Z,0.00
2018-10-19T01:47:49.503Z,0.00
2018-10-19T01:48:49.472Z,0.00
2018-10-19T01:49:49.438Z,0.00
2018-10-19T01:50:49.406Z,0.00
2018-10-19T01:51:49.373Z,0.00
2018-10-19T01:52:49.340Z,0.00
2018-10-19T01:53:49.316Z,0.00
2018-10-19T01:54:49.275Z,0.00
2018-10-19T01:55:49.243Z,0.00
2018-10-19T01:56:49.209Z,0.00
2018-10-19T01:57:49.174Z,0.00
2018-10-19T01:58:49.144Z,0.00
2018-10-19T01:59:49.110Z,0.00
2018-10-19T02:00:49.077Z,0.00
2018-10-19T02:01:49.045Z,0.00
2018-10-19T02:02:49.011Z,0.00
2018-10-19T02:03:48.979Z,0.00
2018-10-19T02:04:48.945Z,0.00
2018-10-19T02:05:48.913Z,0.00
2018-10-19T02:06:48.881Z,0.00
2018-10-19T02:07:48.845Z,0.00
2018-10-19T02:08:48.813Z,0.00
2018-10-19T02:09:48.781Z,0.00
2018-10-19T02:10:48.748Z,0.00
2018-10-19T02:11:48.715Z,0.00
2018-10-19T02:12:48.685Z,0.00
2018-10-19T02:13:48.648Z,0.00
2018-10-19T02:14:48.622Z,0.00
2018-10-19T02:15:48.583Z,0.00
2018-10-19T02:16:49.295Z,0.00
2018-10-19T02:17:48.517Z,0.00
2018-10-19T02:18:48.483Z,0.00
2018-10-19T02:19:48.450Z,0.00
2018-10-19T02:20:48.419Z,0.00
2018-10-19T02:21:48.383Z,0.00
2018-10-19T02:22:48.350Z,0.00
2018-10-19T02:23:48.332Z,0.00
2018-10-19T02:24:48.287Z,0.00
2018-10-19T02:25:48.253Z,0.00
2018-10-19T02:26:48.218Z,0.00
2018-10-19T02:27:48.187Z,0.00
2018-10-19T02:28:48.159Z,0.00
2018-10-19T02:29:48.120Z,0.00
2018-10-19T02:30:48.091Z,0.00
2018-10-19T02:31:48.054Z,0.00
2018-10-19T02:32:48.021Z,0.00
2018-10-19T02:33:47.988Z,0.00
2018-10-19T02:34:47.955Z,0.00
2018-10-19T02:35:47.922Z,0.00
2018-10-19T02:36:47.890Z,0.00
2018-10-19T02:37:47.856Z,0.00
2018-10-19T02:38:47.870Z,0.00
2018-10-19T02:39:47.795Z,0.00
2018-10-19T02:40:47.758Z,0.00
2018-10-19T02:41:47.721Z,0.00
2018-10-19T02:42:47.690Z,0.00
2018-10-19T02:43:47.657Z,0.00
2018-10-19T02:44:47.630Z,0.00
2018-10-19T02:45:47.593Z,0.00
2018-10-19T02:46:47.558Z,0.00
2018-10-19T02:47:47.524Z,0.00
2018-10-19T02:48:47.492Z,0.00
2018-10-19T02:49:47.460Z,0.00
2018-10-19T02:50:47.429Z,0.00
2018-10-19T02:51:47.388Z,0.00
2018-10-19T02:52:47.361Z,0.00
2018-10-19T02:53:47.328Z,0.00
2018-10-19T02:54:47.303Z,0.00
2018-10-19T02:55:47.259Z,0.00
2018-10-19T02:56:47.228Z,0.00
2018-10-19T02:57:47.194Z,0.00
2018-10-19T02:58:47.164Z,0.00
2018-10-19T02:59:47.128Z,0.00
2018-10-19T03:00:47.095Z,0.00
2018-10-19T03:01:47.065Z,0.00
2018-10-19T03:02:47.031Z,0.00
2018-10-19T03:03:46.997Z,0.00
2018-10-19T03:04:46.965Z,0.00
2018-10-19T03:05:46.933Z,0.00
2018-10-19T03:06:46.897Z,0.00
2018-10-19T03:07:46.866Z,0.00
2018-10-19T03:08:46.830Z,0.00
2018-10-19T03:09:46.799Z,0.00
2018-10-19T03:10:46.769Z,0.00
2018-10-19T03:11:46.732Z,0.00
2018-10-19T03:12:46.699Z,0.00
2018-10-19T03:13:46.667Z,0.00
2018-10-19T03:14:46.639Z,0.00
2018-10-19T03:15:46.601Z,0.00
2018-10-19T03:16:46.566Z,0.00
2018-10-19T03:17:46.533Z,0.00
2018-10-19T03:18:46.502Z,0.00
2018-10-19T03:19:46.467Z,0.00
2018-10-19T03:20:46.435Z,0.00
2018-10-19T03:21:46.399Z,0.00
2018-10-19T03:22:46.372Z,0.00
2018-10-19T03:23:46.337Z,0.00
2018-10-19T03:24:46.302Z,0.00
2018-10-19T03:25:46.270Z,0.00
2018-10-19T03:26:46.237Z,0.00
2018-10-19T03:27:46.204Z,0.00
2018-10-19T03:28:46.170Z,0.00
2018-10-19T03:29:46.136Z,0.00
2018-10-19T03:30:46.125Z,0.00
2018-10-19T03:31:46.069Z,0.00
2018-10-19T03:32:46.038Z,0.00
2018-10-19T03:33:46.005Z,0.00
2018-10-19T03:34:45.972Z,0.00
2018-10-19T03:35:45.936Z,0.00
2018-10-19T03:36:45.903Z,0.00
2018-10-19T03:37:46.810Z,0.00
2018-10-19T03:38:45.838Z,0.00
2018-10-19T03:39:45.802Z,0.00
2018-10-19T03:40:45.772Z,0.00
2018-10-19T03:41:45.738Z,0.00
2018-10-19T03:42:45.705Z,0.00
2018-10-19T03:43:45.671Z,0.00
2018-10-19T03:44:45.637Z,0.00
2018-10-19T03:45:45.605Z,0.00
2018-10-19T03:46:45.572Z,0.00
2018-10-19T03:47:45.538Z,0.00
2018-10-19T03:48:45.506Z,0.00
2018-10-19T03:49:46.306Z,0.00
2018-10-19T03:50:45.441Z,0.00
2018-10-19T03:51:45.404Z,0.00
2018-10-19T03:52:45.370Z,0.00
2018-10-19T03:53:45.339Z,0.00
2018-10-19T03:54:45.305Z,0.00
2018-10-19T03:55:45.271Z,0.00
2018-10-19T03:56:45.236Z,0.00
2018-10-19T03:57:45.206Z,0.00
2018-10-19T03:58:45.175Z,0.00
2018-10-19T03:59:45.139Z,0.00
2018-10-19T04:00:45.103Z,0.00
2018-10-19T04:01:45.072Z,0.00
2018-10-19T04:02:45.037Z,0.00
2018-10-19T04:03:45.045Z,0.00
2018-10-19T04:04:44.972Z,0.00
2018-10-19T04:05:44.940Z,0.00
2018-10-19T04:06:44.906Z,0.00
2018-10-19T04:07:44.872Z,0.00
2018-10-19T04:08:44.838Z,0.00
2018-10-19T04:09:44.805Z,0.00
2018-10-19T04:10:44.773Z,0.00
2018-10-19T04:11:44.740Z,0.00
2018-10-19T04:12:44.706Z,0.00
2018-10-19T04:13:44.672Z,0.00
2018-10-19T04:14:44.638Z,0.00
2018-10-19T04:15:44.604Z,0.00
2018-10-19T04:16:44.571Z,0.00
2018-10-19T04:17:44.539Z,0.00
2018-10-19T04:18:44.505Z,0.00
2018-10-19T04:19:44.494Z,0.00
2018-10-19T04:20:44.444Z,0.00
2018-10-19T04:21:44.404Z,0.00
2018-10-19T04:22:45.308Z,0.00
2018-10-19T04:23:44.339Z,0.00
2018-10-19T04:24:44.305Z,0.00
2018-10-19T04:25:44.276Z,0.00
2018-10-19T04:26:44.238Z,0.00
2018-10-19T04:27:44.345Z,0.00
2018-10-19T04:28:44.172Z,0.00
2018-10-19T04:29:44.139Z,0.00
2018-10-19T04:30:44.106Z,0.00
2018-10-19T04:31:44.072Z,0.00
2018-10-19T04:32:44.038Z,0.00
2018-10-19T04:33:44.004Z,0.00
2018-10-19T04:34:43.971Z,0.00
2018-10-19T04:35:43.939Z,0.00
2018-10-19T04:36:43.907Z,0.00
2018-10-19T04:37:43.873Z,0.00
2018-10-19T04:38:43.839Z,0.00
2018-10-19T04:39:43.804Z,0.00
2018-10-19T04:40:43.771Z,0.00
2018-10-19T04:41:43.958Z,0.00
2018-10-19T04:42:43.705Z,0.00
2018-10-19T04:43:43.672Z,0.00
2018-10-19T04:44:43.642Z,0.00
2018-10-19T04:45:43.605Z,0.00
2018-10-19T04:46:43.571Z,0.00
2018-10-19T04:47:43.591Z,0.00
2018-10-19T04:48:43.510Z,0.00
2018-10-19T04:49:43.473Z,0.00
2018-10-19T04:50:43.438Z,0.00
2018-10-19T04:51:43.406Z,0.00
2018-10-19T04:52:43.376Z,0.00
2018-10-19T04:53:43.351Z,0.00
2018-10-19T04:54:43.308Z,0.00
2018-10-19T04:55:43.814Z,0.00
2018-10-19T04:56:43.241Z,0.00
2018-10-19T04:57:43.204Z,0.00
2018-10-19T04:58:43.172Z,0.00
2018-10-19T04:59:43.141Z,0.00
2018-10-19T05:00:43.108Z,0.00
2018-10-19T05:01:50.487Z,0.00
2018-10-19T05:03:35.891Z,0.00
2018-10-19T05:04:35.904Z,0.00
2018-10-19T05:06:28.714Z,0.00
2018-10-19T05:07:28.609Z,0.00
2018-10-19T05:08:28.557Z,4.00
2018-10-19T05:09:28.521Z,4.00
2018-10-19T05:10:35.899Z,0.00
2018-10-19T05:12:22.162Z,4.00
2018-10-19T05:13:22.036Z,4.00
2018-10-19T05:15:15.147Z,4.00
2018-10-19T05:16:15.087Z,4.00
2018-10-19T05:18:08.204Z,4.00
2018-10-19T05:19:08.143Z,12.00
2018-10-19T05:21:01.432Z,12.00
2018-10-19T05:22:01.400Z,16.00
2018-10-19T05:23:54.223Z,20.00
2018-10-19T05:24:54.197Z,24.00
2018-10-19T05:26:48.063Z,32.00
2018-10-19T05:27:47.217Z,36.00
2018-10-19T05:29:40.822Z,52.00
2018-10-19T05:30:40.762Z,60.00
2018-10-19T05:32:35.087Z,80.00
2018-10-19T05:33:35.031Z,92.00
2018-10-19T05:35:28.142Z,116.00
2018-10-19T05:36:28.093Z,132.00
2018-10-19T05:38:20.898Z,168.00
2018-10-19T05:39:20.851Z,188.00
2018-10-19T05:41:13.829Z,220.00
2018-10-19T05:42:13.608Z,244.00
2018-10-19T05:44:07.012Z,284.00
2018-10-19T05:45:06.868Z,312.00
2018-10-19T05:47:00.230Z,364.00
2018-10-19T05:48:00.191Z,392.00
2018-10-19T05:49:53.278Z,456.00
2018-10-19T05:50:53.175Z,492.00
2018-10-19T05:52:47.770Z,568.00
2018-10-19T05:53:47.734Z,608.00
2018-10-19T05:55:41.354Z,688.00
2018-10-19T05:56:41.274Z,728.00
2018-10-19T05:57:41.266Z,764.00
2018-10-19T05:58:41.210Z,808.00
2018-10-19T05:59:42.141Z,848.00
2018-10-19T06:00:41.144Z,892.00
2018-10-19T06:01:41.112Z,936.00
2018-10-19T06:02:41.142Z,976.00
2018-10-19T06:03:41.042Z,1024.00
2018-10-19T06:04:41.010Z,1068.00
2018-10-19T06:05:40.973Z,1112.00
2018-10-19T06:06:40.941Z,1156.00
2018-10-19T06:07:40.909Z,1204.00
2018-10-19T06:08:40.876Z,1252.00
2018-10-19T06:09:40.843Z,1300.00
2018-10-19T06:10:40.807Z,1348.00
2018-10-19T06:11:40.774Z,1396.00
2018-10-19T06:12:40.740Z,1440.00
2018-10-19T06:13:40.806Z,1480.00
2018-10-19T06:14:40.676Z,1532.00
2018-10-19T06:15:40.639Z,1572.00
2018-10-19T06:16:40.611Z,1608.00
2018-10-19T06:17:40.613Z,1644.00
2018-10-19T06:18:40.610Z,1680.00
2018-10-19T06:19:40.524Z,1716.00
2018-10-19T06:20:40.477Z,1752.00
2018-10-19T06:21:40.442Z,1788.00
2018-10-19T06:22:41.132Z,1820.00
2018-10-19T06:23:40.378Z,1856.00
2018-10-19T06:24:40.341Z,1892.00
2018-10-19T06:25:40.310Z,1928.00
2018-10-19T06:26:40.273Z,1960.00
2018-10-19T06:27:40.242Z,1996.00
2018-10-19T06:28:41.136Z,2032.00
2018-10-19T06:29:40.175Z,2064.00
2018-10-19T06:30:40.140Z,2092.00
2018-10-19T06:31:40.108Z,2120.00
2018-10-19T06:32:40.075Z,2148.00
2018-10-19T06:33:40.112Z,2180.00
2018-10-19T06:34:40.009Z,2196.00
2018-10-19T06:35:39.975Z,2224.00
2018-10-19T06:36:39.942Z,2240.00
2018-10-19T06:37:39.910Z,2260.00
2018-10-19T06:38:39.876Z,2280.00
2018-10-19T06:39:39.929Z,2300.00
2018-10-19T06:40:39.821Z,2320.00
2018-10-19T06:41:39.776Z,2340.00
2018-10-19T06:42:39.743Z,2360.00
2018-10-19T06:43:39.708Z,2372.00
2018-10-19T06:44:39.676Z,2372.00
2018-10-19T06:45:39.644Z,2360.00
2018-10-19T06:46:39.639Z,2416.00
2018-10-19T06:47:39.577Z,2416.00
2018-10-19T06:48:39.547Z,2428.00
2018-10-19T06:49:39.511Z,2416.00
2018-10-19T06:50:39.482Z,2404.00
2018-10-19T06:51:39.447Z,2384.00
2018-10-19T06:52:39.413Z,2444.00
2018-10-19T06:53:39.384Z,2468.00
2018-10-19T06:54:39.376Z,2492.00
2018-10-19T06:55:39.315Z,2496.00
2018-10-19T06:56:39.284Z,2512.00
2018-10-19T06:57:39.254Z,2536.00
2018-10-19T06:58:39.219Z,2548.00
2018-10-19T06:59:39.184Z,2548.00
2018-10-19T07:00:39.152Z,2556.00
2018-10-19T07:01:39.121Z,2572.00
2018-10-19T07:02:39.093Z,2596.00
2018-10-19T07:03:39.051Z,2588.00
2018-10-19T07:04:39.642Z,2592.00
2018-10-19T07:05:39.054Z,2596.00
2018-10-19T07:06:39.490Z,2624.00
2018-10-19T07:07:38.922Z,2652.00
2018-10-19T07:08:39.249Z,2712.00
2018-10-19T07:09:40.882Z,2780.00
2018-10-19T07:10:39.159Z,2800.00
2018-10-19T07:11:39.317Z,2892.00
2018-10-19T07:13:39.631Z,3092.00
2018-10-19T07:14:41.470Z,3128.00
2018-10-19T07:15:38.735Z,3148.00
2018-10-19T07:16:39.097Z,3160.00
2018-10-19T07:17:40.285Z,3136.00
2018-10-19T07:18:38.568Z,3204.00
2018-10-19T07:19:39.023Z,3300.00
2018-10-19T07:20:38.607Z,3304.00
2018-10-19T07:21:38.545Z,3292.00
2018-10-19T07:22:38.435Z,3332.00
2018-10-19T07:23:38.406Z,3376.00
2018-10-19T07:24:38.371Z,3380.00
2018-10-19T07:25:38.344Z,3668.00
2018-10-19T07:26:38.310Z,3688.00
2018-10-19T07:27:38.281Z,3632.00
2018-10-19T07:28:38.242Z,3632.00
2018-10-19T07:29:38.315Z,3736.00
2018-10-19T07:30:38.178Z,3784.00
2018-10-19T07:31:38.146Z,3840.00
2018-10-19T07:32:38.116Z,3836.00
2018-10-19T07:33:38.085Z,3888.00
2018-10-19T07:34:38.070Z,3912.00
2018-10-19T07:35:38.092Z,3972.00
2018-10-19T07:36:38.033Z,4152.00
2018-10-19T07:37:37.997Z,4228.00
2018-10-19T07:38:37.948Z,4320.00
2018-10-19T07:39:37.924Z,4240.00
2018-10-19T07:40:37.852Z,4192.00
2018-10-19T07:41:37.903Z,4120.00
2018-10-19T07:42:37.799Z,4144.00
2018-10-19T07:43:37.767Z,4168.00
2018-10-19T07:44:38.726Z,4300.00
2018-10-19T07:45:37.710Z,4312.00
2018-10-19T07:46:37.667Z,4260.00
2018-10-19T07:47:37.683Z,4224.00
2018-10-19T07:48:37.710Z,4424.00
2018-10-19T07:49:37.574Z,4604.00
2018-10-19T07:50:37.538Z,4716.00
2018-10-19T07:51:38.142Z,4840.00
2018-10-19T07:52:40.144Z,4920.00
2018-10-19T07:53:37.446Z,4964.00
2018-10-19T07:54:37.428Z,5100.00
2018-10-19T07:55:37.383Z,5176.00
2018-10-19T07:56:37.355Z,5296.00
2018-10-19T07:57:37.324Z,5392.00
2018-10-19T07:58:37.294Z,5380.00
2018-10-19T07:59:37.263Z,5476.00
2018-10-19T08:00:37.252Z,5508.00
2018-10-19T08:01:37.205Z,5476.00
2018-10-19T08:02:37.165Z,5560.00
2018-10-19T08:03:37.135Z,5584.00
2018-10-19T08:04:37.104Z,5572.00
2018-10-19T08:05:37.201Z,5488.00
2018-10-19T08:06:37.165Z,5368.00
2018-10-19T08:07:38.642Z,5064.00
2018-10-19T08:08:36.983Z,4828.00
2018-10-19T08:09:36.979Z,4840.00
2018-10-19T08:10:37.107Z,4844.00
2018-10-19T08:11:37.806Z,4892.00
2018-10-19T08:12:36.978Z,4836.00
2018-10-19T08:13:36.845Z,4732.00
2018-10-19T08:14:36.909Z,4924.00
2018-10-19T08:15:36.914Z,4904.00
2018-10-19T08:16:36.752Z,4636.00
2018-10-19T08:17:36.818Z,4664.00
2018-10-19T08:18:36.853Z,4868.00
2018-10-19T08:20:36.662Z,5300.00
2018-10-19T08:21:36.644Z,5420.00
2018-10-19T08:22:36.631Z,5568.00
2018-10-19T08:23:36.660Z,5260.00
2018-10-19T08:24:36.615Z,4872.00
2018-10-19T08:25:36.470Z,5212.00
2018-10-19T08:26:36.472Z,5204.00
2018-10-19T08:27:36.424Z,5232.00
2018-10-19T08:28:36.427Z,5144.00
2018-10-19T08:29:36.394Z,5256.00
2018-10-19T08:30:36.397Z,5196.00
2018-10-19T08:31:36.278Z,5280.00
2018-10-19T08:32:36.249Z,5336.00
2018-10-19T08:33:36.219Z,5384.00
2018-10-19T08:34:36.186Z,5684.00
2018-10-19T08:35:36.159Z,5536.00
2018-10-19T08:36:36.127Z,5092.00
2018-10-19T08:37:36.275Z,5280.00
2018-10-19T08:38:36.063Z,5560.00
2018-10-19T08:39:36.037Z,5852.00
2018-10-19T08:40:36.006Z,5592.00
2018-10-19T08:41:36.038Z,5264.00
2018-10-19T08:42:35.951Z,5272.00
2018-10-19T08:43:35.917Z,5208.00
2018-10-19T08:44:35.884Z,5204.00
2018-10-19T08:45:35.855Z,5180.00
2018-10-19T08:46:35.824Z,5260.00
2018-10-19T08:47:35.856Z,5320.00
2018-10-19T08:48:35.764Z,5524.00
2018-10-19T08:49:35.735Z,5760.00
2018-10-19T08:50:35.703Z,5828.00
2018-10-19T08:51:35.674Z,5736.00
2018-10-19T08:52:35.648Z,5248.00
2018-10-19T08:53:35.648Z,5280.00
2018-10-19T08:54:35.593Z,5328.00
2018-10-19T08:55:35.557Z,4784.00
2018-10-19T08:56:35.539Z,4800.00
2018-10-19T08:57:35.547Z,5072.00
2018-10-19T08:58:35.463Z,5276.00
2018-10-19T08:59:35.433Z,5652.00
2018-10-19T09:00:35.402Z,5996.00
2018-10-19T09:01:35.374Z,5976.00
2018-10-19T09:02:35.343Z,5944.00
2018-10-19T09:03:35.365Z,5892.00
2018-10-19T09:04:35.286Z,6332.00
2018-10-19T09:05:35.269Z,6520.00
2018-10-19T09:06:35.224Z,6804.00
2018-10-19T09:07:35.194Z,6020.00
2018-10-19T09:08:35.163Z,6424.00
2018-10-19T09:09:35.192Z,6608.00
2018-10-19T09:10:35.103Z,6604.00
2018-10-19T09:11:35.659Z,6868.00
2018-10-19T09:12:35.147Z,6944.00
2018-10-19T09:13:35.016Z,6776.00
2018-10-19T09:14:34.985Z,7012.00
2018-10-19T09:15:34.954Z,6700.00
2018-10-19T09:16:34.928Z,6312.00
2018-10-19T09:17:35.652Z,6516.00
2018-10-19T09:18:34.973Z,6888.00
2018-10-19T09:19:34.837Z,7152.00
2018-10-19T09:20:34.809Z,7244.00
2018-10-19T09:21:34.780Z,7312.00
2018-10-19T09:22:34.748Z,7364.00
2018-10-19T09:23:35.601Z,7408.00
2018-10-19T09:24:34.689Z,7416.00
2018-10-19T09:25:34.659Z,7460.00
2018-10-19T09:26:34.630Z,7488.00
2018-10-19T09:27:34.600Z,7508.00
2018-10-19T09:28:34.572Z,7568.00
2018-10-19T09:29:34.604Z,7596.00
2018-10-19T09:30:34.512Z,7644.00
2018-10-19T09:31:34.482Z,7732.00
2018-10-19T09:32:34.455Z,7828.00
2018-10-19T09:33:34.429Z,7952.00
2018-10-19T09:34:34.396Z,8020.00
2018-10-19T09:35:34.436Z,8040.00
2018-10-19T09:36:34.557Z,8276.00
2018-10-19T09:37:34.311Z,6224.00
2018-10-19T09:38:34.279Z,8668.00
2018-10-19T09:39:34.252Z,8528.00
2018-10-19T09:40:34.237Z,7900.00
2018-10-19T09:41:34.195Z,8964.00
2018-10-19T09:42:34.164Z,9076.00
2018-10-19T09:43:34.136Z,9376.00
2018-10-19T09:44:34.107Z,9380.00
2018-10-19T09:45:34.079Z,9464.00
2018-10-19T09:46:34.052Z,9508.00
2018-10-19T09:47:34.113Z,9564.00
2018-10-19T09:48:33.994Z,10160.00
2018-10-19T09:49:33.965Z,10028.00
2018-10-19T09:50:33.937Z,10060.00
2018-10-19T09:51:33.908Z,10176.00
2018-10-19T09:52:33.880Z,10624.00
2018-10-19T09:53:33.854Z,10236.00
2018-10-19T09:54:33.829Z,9784.00
2018-10-19T09:55:33.796Z,9300.00
2018-10-19T09:56:33.767Z,5240.00
2018-10-19T09:57:33.741Z,5004.00
2018-10-19T09:58:33.748Z,4900.00
2018-10-19T09:59:33.687Z,4840.00
2018-10-19T10:00:33.655Z,8512.00
2018-10-19T10:01:33.628Z,5792.00
2018-10-19T10:02:33.599Z,5452.00
2018-10-19T10:03:33.572Z,7548.00
2018-10-19T10:04:33.542Z,9800.00
2018-10-19T10:05:33.515Z,7060.00
2018-10-19T10:06:33.487Z,5336.00
2018-10-19T10:07:33.458Z,5480.00
2018-10-19T10:08:33.428Z,10128.00
2018-10-19T10:09:33.400Z,10388.00
2018-10-19T10:10:33.375Z,10676.00
2018-10-19T10:11:33.344Z,10832.00
2018-10-19T10:12:33.316Z,10632.00
2018-10-19T10:13:33.290Z,10536.00
2018-10-19T10:14:33.256Z,9060.00
2018-10-19T10:15:33.308Z,7332.00
2018-10-19T10:16:33.206Z,7484.00
2018-10-19T10:17:33.177Z,10044.00
2018-10-19T10:18:33.152Z,10040.00
2018-10-19T10:19:33.122Z,8292.00
2018-10-19T10:20:33.092Z,9888.00
2018-10-19T10:21:33.066Z,10240.00
2018-10-19T10:22:33.036Z,5908.00
2018-10-19T10:23:33.012Z,5444.00
2018-10-19T10:24:33.031Z,5128.00
2018-10-19T10:25:32.954Z,5168.00
2018-10-19T10:26:32.926Z,5296.00
2018-10-19T10:27:32.899Z,5284.00
2018-10-19T10:28:33.666Z,5260.00
2018-10-19T10:29:32.844Z,5252.00
2018-10-19T10:30:32.815Z,5304.00
2018-10-19T10:31:32.787Z,5612.00
2018-10-19T10:32:32.759Z,10316.00
2018-10-19T10:33:32.729Z,9568.00
2018-10-19T10:34:32.701Z,6276.00
2018-10-19T10:35:32.673Z,5184.00
2018-10-19T10:36:32.647Z,5068.00
2018-10-19T10:37:32.618Z,5100.00
2018-10-19T10:38:32.594Z,5288.00
2018-10-19T10:39:32.562Z,5468.00
2018-10-19T10:40:32.535Z,5508.00
2018-10-19T10:41:32.504Z,7040.00
2018-10-19T10:42:32.479Z,5104.00
2018-10-19T10:43:32.446Z,5180.00
2018-10-19T10:44:32.419Z,5532.00
2018-10-19T10:45:33.169Z,5896.00
2018-10-19T10:46:32.362Z,10392.00
2018-10-19T10:47:32.334Z,10360.00
2018-10-19T10:48:32.307Z,10268.00
2018-10-19T10:49:32.308Z,9908.00
2018-10-19T10:50:32.247Z,9840.00
2018-10-19T10:51:35.429Z,9988.00
2018-10-19T10:52:55.383Z,9996.00
2018-10-19T10:53:32.979Z,9960.00
2018-10-19T10:54:32.155Z,10016.00
2018-10-19T10:55:32.107Z,10184.00
2018-10-19T10:56:32.080Z,10568.00
2018-10-19T10:57:32.048Z,10972.00
2018-10-19T10:58:32.023Z,11284.00
2018-10-19T10:59:32.002Z,11408.00
2018-10-19T11:00:31.964Z,11344.00
2018-10-19T11:01:31.937Z,11236.00
2018-10-19T11:02:31.908Z,11400.00
2018-10-19T11:03:31.880Z,11496.00
2018-10-19T11:04:31.852Z,11396.00
2018-10-19T11:05:31.825Z,11052.00
2018-10-19T11:06:31.800Z,10692.00
2018-10-19T11:07:31.897Z,10340.00
2018-10-19T11:08:31.744Z,10140.00
2018-10-19T11:09:31.716Z,9956.00
2018-10-19T11:10:31.688Z,9516.00
2018-10-19T11:11:31.659Z,5244.00
2018-10-19T11:12:31.633Z,5024.00
2018-10-19T11:13:31.610Z,4960.00
2018-10-19T11:14:31.577Z,4952.00
2018-10-19T11:15:31.549Z,4940.00
2018-10-19T11:16:31.521Z,4932.00
2018-10-19T11:17:31.497Z,5020.00
2018-10-19T11:18:31.467Z,5192.00
2018-10-19T11:19:31.443Z,5512.00
2018-10-19T11:20:31.430Z,6028.00
2018-10-19T11:21:31.390Z,6604.00
2018-10-19T11:22:31.358Z,6588.00
2018-10-19T11:23:31.332Z,6652.00
2018-10-19T11:24:31.301Z,6668.00
2018-10-19T11:25:31.273Z,6704.00
2018-10-19T11:26:31.243Z,8644.00
2018-10-19T11:27:31.218Z,11196.00
2018-10-19T11:28:31.191Z,11052.00
2018-10-19T11:29:31.163Z,10896.00
2018-10-19T11:30:31.316Z,8140.00
2018-10-19T11:31:31.105Z,10536.00
2018-10-19T11:32:31.078Z,11308.00
2018-10-19T11:33:31.047Z,9396.00
2018-10-19T11:34:31.023Z,9304.00
2018-10-19T11:35:30.994Z,10016.00
2018-10-19T11:36:30.967Z,9808.00
2018-10-19T11:37:30.972Z,9812.00
2018-10-19T11:38:30.910Z,10720.00
2018-10-19T11:39:30.885Z,10536.00
2018-10-19T11:40:31.027Z,10520.00
2018-10-19T11:41:30.832Z,10616.00
2018-10-19T11:42:30.801Z,10468.00
2018-10-19T11:43:30.775Z,10224.00
2018-10-19T11:44:30.747Z,10092.00
2018-10-19T11:45:30.733Z,6116.00
2018-10-19T11:46:30.692Z,8628.00
2018-10-19T11:47:30.666Z,9640.00
2018-10-19T11:48:30.639Z,9248.00
2018-10-19T11:49:30.612Z,6952.00
2018-10-19T11:50:30.587Z,8984.00
2018-10-19T11:51:30.557Z,9172.00
2018-10-19T11:52:30.530Z,9000.00
2018-10-19T11:53:30.506Z,8828.00
2018-10-19T11:54:30.474Z,4724.00
2018-10-19T11:55:30.447Z,6704.00
2018-10-19T11:56:30.422Z,4484.00
2018-10-19T11:57:30.391Z,4264.00
2018-10-19T11:58:30.365Z,4388.00
2018-10-19T11:59:30.338Z,5188.00
2018-10-19T12:00:30.319Z,9308.00
2018-10-19T12:01:30.283Z,9300.00
2018-10-19T12:02:30.254Z,9324.00
2018-10-19T12:03:30.287Z,9304.00
2018-10-19T12:04:30.200Z,9312.00
2018-10-19T12:05:30.173Z,9340.00
2018-10-19T12:06:30.142Z,9396.00
2018-10-19T12:07:30.116Z,9020.00
2018-10-19T12:08:30.088Z,7636.00
2018-10-19T12:09:30.061Z,4808.00
2018-10-19T12:10:30.038Z,4312.00
2018-10-19T12:11:30.005Z,4232.00
2018-10-19T12:12:29.977Z,4212.00
2018-10-19T12:13:29.950Z,4232.00
2018-10-19T12:14:29.928Z,4248.00
2018-10-19T12:15:29.894Z,4284.00
2018-10-19T12:16:29.896Z,4336.00
2018-10-19T12:17:29.840Z,7128.00
2018-10-19T12:18:29.813Z,4436.00
2018-10-19T12:19:29.785Z,4332.00
2018-10-19T12:20:29.759Z,4452.00
2018-10-19T12:21:29.774Z,5004.00
2018-10-19T12:22:29.698Z,4408.00
2018-10-19T12:23:29.670Z,4424.00
2018-10-19T12:24:29.642Z,8576.00
2018-10-19T12:25:29.614Z,4548.00
2018-10-19T12:26:29.584Z,4512.00
2018-10-19T12:27:29.555Z,4544.00
2018-10-19T12:28:29.527Z,4520.00
2018-10-19T12:29:29.499Z,4600.00
2018-10-19T12:30:29.476Z,4800.00
2018-10-19T12:31:29.444Z,5096.00
2018-10-19T12:32:29.415Z,9516.00
2018-10-19T12:33:29.384Z,10144.00
2018-10-19T12:34:29.356Z,10064.00
2018-10-19T12:35:29.381Z,9232.00
2018-10-19T12:36:29.299Z,5584.00
2018-10-19T12:37:29.274Z,9112.00
2018-10-19T12:38:29.245Z,4152.00
2018-10-19T12:39:29.214Z,4228.00
2018-10-19T12:40:29.186Z,3836.00
2018-10-19T12:41:29.158Z,3756.00
2018-10-19T12:42:29.129Z,3700.00
2018-10-19T12:43:29.100Z,3648.00
2018-10-19T12:44:29.071Z,3620.00
2018-10-19T12:45:29.045Z,3604.00
2018-10-19T12:46:29.013Z,3576.00
2018-10-19T12:47:29.076Z,3568.00
2018-10-19T12:48:28.959Z,3560.00
2018-10-19T12:49:28.931Z,3596.00
2018-10-19T12:50:28.901Z,3588.00
2018-10-19T12:51:28.873Z,3604.00
2018-10-19T12:52:28.846Z,3644.00